sensor_id;sensor_type;location;lat;lon;timestamp;pressure;altitude;pressure_sealevel;temperature;humidity
74905;BME280;63465;50.862;6.220;2022-10-16T00:00:35;99478.13;;;14.21;77.22
74905;BME280;63465;50.862;6.220;2022-10-16T00:03:02;99475.81;;;14.29;76.81
74905;BME280;63465;50.862;6.220;2022-10-16T00:05:29;99476.44;;;14.33;76.61
74905;BME280;63465;50.862;6.220;2022-10-16T00:07:57;99477.59;;;14.28;76.72
74905;BME280;63465;50.862;6.220;2022-10-16T00:10:24;99465.13;;;14.29;76.56
74905;BME280;63465;50.862;6.220;2022-10-16T00:12:51;99465.34;;;14.26;76.54
74905;BME280;63465;50.862;6.220;2022-10-16T00:15:18;99463.81;;;14.22;76.69
74905;BME280;63465;50.862;6.220;2022-10-16T00:17:44;99463.94;;;14.20;76.68
74905;BME280;63465;50.862;6.220;2022-10-16T00:20:11;99466.16;;;14.14;76.99
74905;BME280;63465;50.862;6.220;2022-10-16T00:22:57;99457.72;;;14.07;77.12
74905;BME280;63465;50.862;6.220;2022-10-16T00:25:24;99462.50;;;14.02;77.14
74905;BME280;63465;50.862;6.220;2022-10-16T00:27:51;99458.13;;;14.01;77.04
74905;BME280;63465;50.862;6.220;2022-10-16T00:30:17;99457.38;;;13.99;76.65
74905;BME280;63465;50.862;6.220;2022-10-16T00:32:44;99457.91;;;14.04;75.89
74905;BME280;63465;50.862;6.220;2022-10-16T00:35:11;99451.63;;;14.05;75.79
74905;BME280;63465;50.862;6.220;2022-10-16T00:37:37;99444.38;;;14.07;75.55
74905;BME280;63465;50.862;6.220;2022-10-16T00:40:06;99448.97;;;14.05;75.51
74905;BME280;63465;50.862;6.220;2022-10-16T00:42:33;99448.22;;;14.03;75.47
74905;BME280;63465;50.862;6.220;2022-10-16T00:45:00;99455.88;;;13.95;75.82
74905;BME280;63465;50.862;6.220;2022-10-16T00:47:30;99455.03;;;13.94;75.57
74905;BME280;63465;50.862;6.220;2022-10-16T00:50:00;99455.97;;;13.93;75.69
74905;BME280;63465;50.862;6.220;2022-10-16T00:52:28;99455.88;;;13.95;75.68
74905;BME280;63465;50.862;6.220;2022-10-16T00:54:56;99464.94;;;13.92;75.35
74905;BME280;63465;50.862;6.220;2022-10-16T00:57:25;99462.38;;;13.90;75.21
74905;BME280;63465;50.862;6.220;2022-10-16T00:59:52;99460.66;;;13.89;75.19
74905;BME280;63465;50.862;6.220;2022-10-16T01:02:19;99475.50;;;13.94;74.78
74905;BME280;63465;50.862;6.220;2022-10-16T01:04:48;99478.38;;;13.90;75.08
74905;BME280;63465;50.862;6.220;2022-10-16T01:07:26;99489.25;;;13.87;75.11
74905;BME280;63465;50.862;6.220;2022-10-16T01:10:10;99464.28;;;13.88;75.26
74905;BME280;63465;50.862;6.220;2022-10-16T01:12:45;99471.75;;;13.83;75.40
74905;BME280;63465;50.862;6.220;2022-10-16T01:15:20;99473.00;;;13.78;75.14
74905;BME280;63465;50.862;6.220;2022-10-16T01:17:53;99457.41;;;13.71;75.54
74905;BME280;63465;50.862;6.220;2022-10-16T01:20:27;99465.91;;;13.64;75.82
74905;BME280;63465;50.862;6.220;2022-10-16T01:23:20;99477.50;;;13.63;75.62
74905;BME280;63465;50.862;6.220;2022-10-16T01:26:03;99483.25;;;13.56;75.27
74905;BME280;63465;50.862;6.220;2022-10-16T01:28:39;99482.00;;;13.62;74.93
74905;BME280;63465;50.862;6.220;2022-10-16T01:31:09;99482.63;;;13.66;74.59
74905;BME280;63465;50.862;6.220;2022-10-16T01:33:40;99479.66;;;13.70;73.63
74905;BME280;63465;50.862;6.220;2022-10-16T01:36:12;99491.41;;;13.68;73.65
74905;BME280;63465;50.862;6.220;2022-10-16T01:38:40;99487.94;;;13.80;73.17
74905;BME280;63465;50.862;6.220;2022-10-16T01:41:11;99485.06;;;13.83;72.73
74905;BME280;63465;50.862;6.220;2022-10-16T01:43:44;99483.16;;;13.85;72.82
74905;BME280;63465;50.862;6.220;2022-10-16T01:46:13;99499.16;;;13.85;72.73
74905;BME280;63465;50.862;6.220;2022-10-16T01:48:42;99504.88;;;13.79;73.01
74905;BME280;63465;50.862;6.220;2022-10-16T01:51:12;99506.41;;;13.83;72.96
74905;BME280;63465;50.862;6.220;2022-10-16T01:53:40;99502.03;;;13.82;73.03
74905;BME280;63465;50.862;6.220;2022-10-16T01:56:11;99502.53;;;13.74;73.10
74905;BME280;63465;50.862;6.220;2022-10-16T01:58:42;99499.13;;;13.72;73.23
74905;BME280;63465;50.862;6.220;2022-10-16T02:01:13;99502.53;;;13.74;73.23
74905;BME280;63465;50.862;6.220;2022-10-16T02:03:42;99504.34;;;13.74;73.38
74905;BME280;63465;50.862;6.220;2022-10-16T02:06:11;99492.91;;;13.72;73.39
74905;BME280;63465;50.862;6.220;2022-10-16T02:08:38;99496.25;;;13.76;73.22
74905;BME280;63465;50.862;6.220;2022-10-16T02:11:09;99501.47;;;13.77;73.35
74905;BME280;63465;50.862;6.220;2022-10-16T02:13:39;99507.31;;;13.69;73.54
74905;BME280;63465;50.862;6.220;2022-10-16T02:16:09;99505.94;;;13.77;73.63
74905;BME280;63465;50.862;6.220;2022-10-16T02:18:38;99497.84;;;13.78;73.58
74905;BME280;63465;50.862;6.220;2022-10-16T02:21:13;99503.28;;;13.77;73.45
74905;BME280;63465;50.862;6.220;2022-10-16T02:23:47;99509.19;;;13.82;73.54
74905;BME280;63465;50.862;6.220;2022-10-16T02:26:26;99504.44;;;13.72;73.88
74905;BME280;63465;50.862;6.220;2022-10-16T02:28:58;99499.13;;;13.72;73.95
74905;BME280;63465;50.862;6.220;2022-10-16T02:31:28;99496.34;;;13.74;73.95
74905;BME280;63465;50.862;6.220;2022-10-16T02:33:58;99499.00;;;13.74;74.26
74905;BME280;63465;50.862;6.220;2022-10-16T02:36:27;99507.75;;;13.76;74.21
74905;BME280;63465;50.862;6.220;2022-10-16T02:38:54;99511.31;;;13.62;74.74
74905;BME280;63465;50.862;6.220;2022-10-16T02:41:21;99503.88;;;13.67;74.74
74905;BME280;63465;50.862;6.220;2022-10-16T02:43:49;99503.13;;;13.65;74.79
74905;BME280;63465;50.862;6.220;2022-10-16T02:46:16;99507.03;;;13.60;75.28
74905;BME280;63465;50.862;6.220;2022-10-16T02:48:44;99502.19;;;13.66;75.28
74905;BME280;63465;50.862;6.220;2022-10-16T02:51:12;99514.38;;;13.56;75.66
74905;BME280;63465;50.862;6.220;2022-10-16T02:53:38;99507.81;;;13.62;75.58
74905;BME280;63465;50.862;6.220;2022-10-16T02:56:05;99499.25;;;13.56;75.80
74905;BME280;63465;50.862;6.220;2022-10-16T02:58:32;99498.63;;;13.66;75.81
74905;BME280;63465;50.862;6.220;2022-10-16T03:00:59;99486.09;;;13.68;75.68
74905;BME280;63465;50.862;6.220;2022-10-16T03:03:26;99487.88;;;13.67;75.79
74905;BME280;63465;50.862;6.220;2022-10-16T03:05:52;99481.16;;;13.62;76.18
74905;BME280;63465;50.862;6.220;2022-10-16T03:08:21;99488.19;;;13.63;76.17
74905;BME280;63465;50.862;6.220;2022-10-16T03:10:49;99496.38;;;13.60;76.29
74905;BME280;63465;50.862;6.220;2022-10-16T03:13:15;99491.25;;;13.56;76.54
74905;BME280;63465;50.862;6.220;2022-10-16T03:15:43;99490.28;;;13.58;76.69
74905;BME280;63465;50.862;6.220;2022-10-16T03:18:10;99491.25;;;13.56;76.69
74905;BME280;63465;50.862;6.220;2022-10-16T03:20:36;99498.94;;;13.61;76.73
74905;BME280;63465;50.862;6.220;2022-10-16T03:23:03;99496.47;;;13.58;76.77
74905;BME280;63465;50.862;6.220;2022-10-16T03:25:31;99492.41;;;13.52;77.26
74905;BME280;63465;50.862;6.220;2022-10-16T03:27:58;99492.75;;;13.61;76.88
74905;BME280;63465;50.862;6.220;2022-10-16T03:30:24;99500.00;;;13.59;76.89
74905;BME280;63465;50.862;6.220;2022-10-16T03:32:51;99506.97;;;13.47;77.44
74905;BME280;63465;50.862;6.220;2022-10-16T03:35:19;99512.88;;;13.52;77.52
74905;BME280;63465;50.862;6.220;2022-10-16T03:37:46;99519.28;;;13.49;77.52
74905;BME280;63465;50.862;6.220;2022-10-16T03:40:12;99531.63;;;13.50;77.38
74905;BME280;63465;50.862;6.220;2022-10-16T03:42:41;99530.22;;;13.45;77.77
74905;BME280;63465;50.862;6.220;2022-10-16T03:45:09;99537.34;;;13.44;77.63
74905;BME280;63465;50.862;6.220;2022-10-16T03:47:36;99517.09;;;13.42;78.07
74905;BME280;63465;50.862;6.220;2022-10-16T03:50:04;99516.22;;;13.41;77.84
74905;BME280;63465;50.862;6.220;2022-10-16T03:52:31;99528.78;;;13.39;78.03
74905;BME280;63465;50.862;6.220;2022-10-16T03:54:58;99523.66;;;13.36;78.15
74905;BME280;63465;50.862;6.220;2022-10-16T03:57:25;99527.84;;;13.40;77.94
74905;BME280;63465;50.862;6.220;2022-10-16T03:59:53;99524.59;;;13.35;78.17
74905;BME280;63465;50.862;6.220;2022-10-16T04:02:19;99526.50;;;13.33;78.21
74905;BME280;63465;50.862;6.220;2022-10-16T04:04:46;99536.97;;;13.36;78.33
74905;BME280;63465;50.862;6.220;2022-10-16T04:07:13;99538.81;;;13.35;78.09
74905;BME280;63465;50.862;6.220;2022-10-16T04:09:39;99534.56;;;13.31;78.60
74905;BME280;63465;50.862;6.220;2022-10-16T04:12:06;99526.41;;;13.34;78.35
74905;BME280;63465;50.862;6.220;2022-10-16T04:14:33;99531.91;;;13.31;78.45
74905;BME280;63465;50.862;6.220;2022-10-16T04:17:01;99530.38;;;13.27;78.57
74905;BME280;63465;50.862;6.220;2022-10-16T04:19:28;99527.91;;;13.24;78.62
74905;BME280;63465;50.862;6.220;2022-10-16T04:21:55;99521.53;;;13.27;78.67
74905;BME280;63465;50.862;6.220;2022-10-16T04:24:21;99528.09;;;13.21;78.69
74905;BME280;63465;50.862;6.220;2022-10-16T04:26:48;99533.25;;;13.24;78.54
74905;BME280;63465;50.862;6.220;2022-10-16T04:29:15;99532.97;;;13.14;78.94
74905;BME280;63465;50.862;6.220;2022-10-16T04:31:41;99549.72;;;13.16;78.64
74905;BME280;63465;50.862;6.220;2022-10-16T04:34:09;99568.47;;;13.00;79.29
74905;BME280;63465;50.862;6.220;2022-10-16T04:36:36;99578.84;;;13.05;79.55
74905;BME280;63465;50.862;6.220;2022-10-16T04:39:03;99584.16;;;13.05;79.29
74905;BME280;63465;50.862;6.220;2022-10-16T04:41:29;99577.66;;;12.95;80.00
74905;BME280;63465;50.862;6.220;2022-10-16T04:43:56;99566.81;;;12.98;79.64
74905;BME280;63465;50.862;6.220;2022-10-16T04:46:23;99572.91;;;13.00;79.36
74905;BME280;63465;50.862;6.220;2022-10-16T04:48:50;99574.53;;;13.02;79.24
74905;BME280;63465;50.862;6.220;2022-10-16T04:51:18;99579.03;;;13.02;79.18
74905;BME280;63465;50.862;6.220;2022-10-16T04:53:45;99575.75;;;12.97;79.24
74905;BME280;63465;50.862;6.220;2022-10-16T04:56:11;99580.63;;;12.90;79.54
74905;BME280;63465;50.862;6.220;2022-10-16T04:58:38;99593.28;;;12.87;79.35
74905;BME280;63465;50.862;6.220;2022-10-16T05:01:05;99589.25;;;12.79;79.72
74905;BME280;63465;50.862;6.220;2022-10-16T05:03:31;99602.94;;;12.73;79.63
74905;BME280;63465;50.862;6.220;2022-10-16T05:05:58;99612.91;;;12.70;79.98
74905;BME280;63465;50.862;6.220;2022-10-16T05:08:26;99597.88;;;12.69;80.07
74905;BME280;63465;50.862;6.220;2022-10-16T05:10:53;99609.19;;;12.72;80.16
74905;BME280;63465;50.862;6.220;2022-10-16T05:13:20;99604.31;;;12.64;80.02
74905;BME280;63465;50.862;6.220;2022-10-16T05:15:47;99590.97;;;12.80;79.68
74905;BME280;63465;50.862;6.220;2022-10-16T05:18:14;99594.56;;;12.79;78.97
74905;BME280;63465;50.862;6.220;2022-10-16T05:20:41;99619.28;;;12.81;79.41
74905;BME280;63465;50.862;6.220;2022-10-16T05:23:08;99610.47;;;12.81;79.73
74905;BME280;63465;50.862;6.220;2022-10-16T05:25:37;99612.19;;;12.82;79.58
74905;BME280;63465;50.862;6.220;2022-10-16T05:28:04;99608.47;;;12.84;79.63
74905;BME280;63465;50.862;6.220;2022-10-16T05:30:30;99611.22;;;12.83;79.67
74905;BME280;63465;50.862;6.220;2022-10-16T05:32:57;99609.63;;;12.80;79.90
74905;BME280;63465;50.862;6.220;2022-10-16T05:35:24;99622.66;;;12.85;80.13
74905;BME280;63465;50.862;6.220;2022-10-16T05:37:51;99632.50;;;12.69;80.81
74905;BME280;63465;50.862;6.220;2022-10-16T05:40:18;99632.44;;;12.84;80.21
74905;BME280;63465;50.862;6.220;2022-10-16T05:42:46;99634.81;;;12.89;79.78
74905;BME280;63465;50.862;6.220;2022-10-16T05:45:13;99643.88;;;12.87;80.07
74905;BME280;63465;50.862;6.220;2022-10-16T05:47:40;99650.88;;;12.88;80.23
74905;BME280;63465;50.862;6.220;2022-10-16T05:50:07;99651.06;;;12.84;80.35
74905;BME280;63465;50.862;6.220;2022-10-16T05:52:34;99658.69;;;12.91;80.29
74905;BME280;63465;50.862;6.220;2022-10-16T05:55:01;99662.31;;;12.90;80.10
74905;BME280;63465;50.862;6.220;2022-10-16T05:57:27;99667.19;;;12.97;80.02
74905;BME280;63465;50.862;6.220;2022-10-16T05:59:56;99662.13;;;12.93;80.16
74905;BME280;63465;50.862;6.220;2022-10-16T06:02:23;99658.06;;;13.01;79.70
74905;BME280;63465;50.862;6.220;2022-10-16T06:04:51;99667.28;;;12.96;79.81
74905;BME280;63465;50.862;6.220;2022-10-16T06:07:18;99666.69;;;12.91;80.05
74905;BME280;63465;50.862;6.220;2022-10-16T06:09:48;99674.22;;;12.98;79.77
74905;BME280;63465;50.862;6.220;2022-10-16T06:12:15;99687.72;;;12.95;79.80
74905;BME280;63465;50.862;6.220;2022-10-16T06:14:41;99680.50;;;12.97;79.72
74905;BME280;63465;50.862;6.220;2022-10-16T06:17:09;99682.56;;;12.92;79.93
74905;BME280;63465;50.862;6.220;2022-10-16T06:19:36;99688.59;;;12.96;79.92
74905;BME280;63465;50.862;6.220;2022-10-16T06:22:03;99699.63;;;13.04;79.49
74905;BME280;63465;50.862;6.220;2022-10-16T06:24:29;99701.38;;;13.05;79.68
74905;BME280;63465;50.862;6.220;2022-10-16T06:26:56;99702.50;;;13.15;79.40
74905;BME280;63465;50.862;6.220;2022-10-16T06:29:23;99709.56;;;13.16;79.50
74905;BME280;63465;50.862;6.220;2022-10-16T06:31:50;99704.19;;;13.32;78.96
74905;BME280;63465;50.862;6.220;2022-10-16T06:34:18;99703.31;;;13.32;78.98
74905;BME280;63465;50.862;6.220;2022-10-16T06:36:44;99711.66;;;13.42;78.77
74905;BME280;63465;50.862;6.220;2022-10-16T06:39:11;99700.63;;;13.48;78.67
74905;BME280;63465;50.862;6.220;2022-10-16T06:41:38;99707.84;;;13.46;78.79
74905;BME280;63465;50.862;6.220;2022-10-16T06:44:14;99711.28;;;13.62;78.02
74905;BME280;63465;50.862;6.220;2022-10-16T06:46:41;99723.09;;;13.58;78.38
74905;BME280;63465;50.862;6.220;2022-10-16T06:49:07;99723.28;;;13.55;78.47
74905;BME280;63465;50.862;6.220;2022-10-16T06:51:36;99717.66;;;13.60;78.34
74905;BME280;63465;50.862;6.220;2022-10-16T06:54:06;99721.19;;;13.60;78.16
74905;BME280;63465;50.862;6.220;2022-10-16T06:56:33;99734.44;;;13.62;78.08
74905;BME280;63465;50.862;6.220;2022-10-16T06:59:01;99734.25;;;13.65;78.23
74905;BME280;63465;50.862;6.220;2022-10-16T07:01:28;99745.47;;;13.70;77.93
74905;BME280;63465;50.862;6.220;2022-10-16T07:03:55;99752.81;;;13.66;78.24
74905;BME280;63465;50.862;6.220;2022-10-16T07:06:23;99758.63;;;13.59;78.31
74905;BME280;63465;50.862;6.220;2022-10-16T07:08:52;99762.41;;;13.54;78.50
74905;BME280;63465;50.862;6.220;2022-10-16T07:11:20;99766.72;;;13.57;78.37
74905;BME280;63465;50.862;6.220;2022-10-16T07:13:48;99764.88;;;13.58;78.47
74905;BME280;63465;50.862;6.220;2022-10-16T07:16:16;99771.84;;;13.60;78.52
74905;BME280;63465;50.862;6.220;2022-10-16T07:18:44;99772.53;;;13.64;78.31
74905;BME280;63465;50.862;6.220;2022-10-16T07:21:13;99772.03;;;13.57;78.68
74905;BME280;63465;50.862;6.220;2022-10-16T07:23:40;99772.63;;;13.62;78.48
74905;BME280;63465;50.862;6.220;2022-10-16T07:26:09;99779.75;;;13.62;78.31
74905;BME280;63465;50.862;6.220;2022-10-16T07:28:36;99784.41;;;13.58;78.58
74905;BME280;63465;50.862;6.220;2022-10-16T07:31:06;99790.78;;;13.55;78.64
74905;BME280;63465;50.862;6.220;2022-10-16T07:33:34;99799.38;;;13.61;78.42
74905;BME280;63465;50.862;6.220;2022-10-16T07:36:01;99804.88;;;13.58;78.57
74905;BME280;63465;50.862;6.220;2022-10-16T07:38:28;99805.19;;;13.67;78.37
74905;BME280;63465;50.862;6.220;2022-10-16T07:40:58;99805.97;;;13.69;78.28
74905;BME280;63465;50.862;6.220;2022-10-16T07:43:28;99809.94;;;13.77;78.21
74905;BME280;63465;50.862;6.220;2022-10-16T07:45:55;99811.59;;;13.79;78.39
74905;BME280;63465;50.862;6.220;2022-10-16T07:48:23;99814.09;;;13.97;78.05
74905;BME280;63465;50.862;6.220;2022-10-16T07:50:50;99820.38;;;14.10;78.08
74905;BME280;63465;50.862;6.220;2022-10-16T07:53:17;99812.38;;;14.24;77.69
74905;BME280;63465;50.862;6.220;2022-10-16T07:55:43;99818.56;;;14.39;76.96
74905;BME280;63465;50.862;6.220;2022-10-16T07:58:10;99818.00;;;14.49;76.55
74905;BME280;63465;50.862;6.220;2022-10-16T08:00:38;99819.31;;;14.56;76.46
74905;BME280;63465;50.862;6.220;2022-10-16T08:03:05;99822.50;;;14.62;76.39
74905;BME280;63465;50.862;6.220;2022-10-16T08:05:32;99819.63;;;14.66;76.34
74905;BME280;63465;50.862;6.220;2022-10-16T08:08:00;99828.44;;;14.80;75.53
74905;BME280;63465;50.862;6.220;2022-10-16T08:10:29;99831.22;;;14.79;75.51
74905;BME280;63465;50.862;6.220;2022-10-16T08:12:57;99841.09;;;14.91;75.16
74905;BME280;63465;50.862;6.220;2022-10-16T08:15:24;99839.25;;;15.06;74.32
74905;BME280;63465;50.862;6.220;2022-10-16T08:17:59;99838.34;;;15.20;73.23
74905;BME280;63465;50.862;6.220;2022-10-16T08:20:27;99847.16;;;15.22;72.84
74905;BME280;63465;50.862;6.220;2022-10-16T08:22:54;99860.75;;;15.32;72.25
74905;BME280;63465;50.862;6.220;2022-10-16T08:25:22;99857.56;;;15.40;72.44
74905;BME280;63465;50.862;6.220;2022-10-16T08:27:49;99862.50;;;15.46;71.78
74905;BME280;63465;50.862;6.220;2022-10-16T08:30:16;99863.19;;;15.62;71.71
74905;BME280;63465;50.862;6.220;2022-10-16T08:32:43;99864.16;;;15.61;71.33
74905;BME280;63465;50.862;6.220;2022-10-16T08:35:12;99861.59;;;15.73;70.81
74905;BME280;63465;50.862;6.220;2022-10-16T08:37:39;99861.19;;;15.79;70.56
74905;BME280;63465;50.862;6.220;2022-10-16T08:40:16;99865.28;;;15.84;69.66
74905;BME280;63465;50.862;6.220;2022-10-16T08:42:54;99873.00;;;15.89;69.74
74905;BME280;63465;50.862;6.220;2022-10-16T08:45:49;99870.00;;;15.94;69.72
74905;BME280;63465;50.862;6.220;2022-10-16T08:48:26;99875.41;;;16.07;69.67
74905;BME280;63465;50.862;6.220;2022-10-16T08:50:57;99885.13;;;16.08;68.98
74905;BME280;63465;50.862;6.220;2022-10-16T08:53:27;99883.09;;;16.11;68.00
74905;BME280;63465;50.862;6.220;2022-10-16T08:55:55;99888.88;;;16.18;68.17
74905;BME280;63465;50.862;6.220;2022-10-16T08:58:27;99892.84;;;16.25;68.24
74905;BME280;63465;50.862;6.220;2022-10-16T09:00:56;99887.72;;;16.22;68.02
74905;BME280;63465;50.862;6.220;2022-10-16T09:03:33;99887.06;;;16.31;67.54
74905;BME280;63465;50.862;6.220;2022-10-16T09:06:24;99894.97;;;16.46;67.63
74905;BME280;63465;50.862;6.220;2022-10-16T09:09:10;99894.53;;;16.52;65.90
74905;BME280;63465;50.862;6.220;2022-10-16T09:11:48;99892.31;;;16.58;66.45
74905;BME280;63465;50.862;6.220;2022-10-16T09:17:20;99899.66;;;16.81;65.19
74905;BME280;63465;50.862;6.220;2022-10-16T09:19:54;99896.22;;;16.91;64.40
74905;BME280;63465;50.862;6.220;2022-10-16T09:22:27;99904.50;;;16.88;64.01
74905;BME280;63465;50.862;6.220;2022-10-16T09:24:59;99905.94;;;17.05;63.59
74905;BME280;63465;50.862;6.220;2022-10-16T09:27:26;99902.59;;;17.15;63.44
74905;BME280;63465;50.862;6.220;2022-10-16T09:29:53;99906.47;;;17.10;62.22
74905;BME280;63465;50.862;6.220;2022-10-16T09:32:21;99899.00;;;17.27;62.91
74905;BME280;63465;50.862;6.220;2022-10-16T09:34:50;99892.97;;;17.60;61.60
74905;BME280;63465;50.862;6.220;2022-10-16T09:37:20;99901.16;;;18.64;58.85
74905;BME280;63465;50.862;6.220;2022-10-16T09:39:50;99898.28;;;19.33;55.60
74905;BME280;63465;50.862;6.220;2022-10-16T09:42:17;99903.00;;;19.73;53.35
74905;BME280;63465;50.862;6.220;2022-10-16T09:44:47;99894.88;;;21.10;50.15
74905;BME280;63465;50.862;6.220;2022-10-16T09:47:17;99894.16;;;22.54;46.66
74905;BME280;63465;50.862;6.220;2022-10-16T09:49:52;99901.72;;;22.31;45.84
74905;BME280;63465;50.862;6.220;2022-10-16T09:52:19;99891.69;;;21.84;47.18
74905;BME280;63465;50.862;6.220;2022-10-16T09:54:52;99904.94;;;21.58;48.31
74905;BME280;63465;50.862;6.220;2022-10-16T09:57:20;99902.00;;;23.13;45.02
74905;BME280;63465;50.862;6.220;2022-10-16T09:59:48;99901.75;;;23.06;44.60
74905;BME280;63465;50.862;6.220;2022-10-16T10:02:17;99894.09;;;22.64;45.37
74905;BME280;63465;50.862;6.220;2022-10-16T10:04:49;99882.94;;;24.31;41.89
74905;BME280;63465;50.862;6.220;2022-10-16T10:07:24;99889.22;;;24.31;41.97
74905;BME280;63465;50.862;6.220;2022-10-16T10:09:53;99898.72;;;24.09;41.29
74905;BME280;63465;50.862;6.220;2022-10-16T10:12:22;99886.50;;;25.51;38.63
74905;BME280;63465;50.862;6.220;2022-10-16T10:14:51;99891.75;;;23.07;43.21
74905;BME280;63465;50.862;6.220;2022-10-16T10:17:20;99900.16;;;23.13;44.23
74905;BME280;63465;50.862;6.220;2022-10-16T10:19:49;99894.34;;;22.14;46.31
74905;BME280;63465;50.862;6.220;2022-10-16T10:22:24;99898.47;;;22.18;46.74
74905;BME280;63465;50.862;6.220;2022-10-16T10:25:19;99903.34;;;21.85;47.67
74905;BME280;63465;50.862;6.220;2022-10-16T10:27:59;99897.91;;;22.34;44.88
74905;BME280;63465;50.862;6.220;2022-10-16T10:30:37;99903.63;;;22.01;46.47
74905;BME280;63465;50.862;6.220;2022-10-16T10:33:14;99901.59;;;22.23;46.06
74905;BME280;63465;50.862;6.220;2022-10-16T10:35:45;99907.84;;;22.43;45.50
74905;BME280;63465;50.862;6.220;2022-10-16T10:38:25;99906.50;;;21.70;47.28
74905;BME280;63465;50.862;6.220;2022-10-16T10:41:03;99907.34;;;20.70;50.88
74905;BME280;63465;50.862;6.220;2022-10-16T10:43:46;99906.16;;;19.46;52.90
74905;BME280;63465;50.862;6.220;2022-10-16T10:46:22;99901.56;;;20.02;52.16
74905;BME280;63465;50.862;6.220;2022-10-16T10:49:02;99906.78;;;20.66;50.16
74905;BME280;63465;50.862;6.220;2022-10-16T10:51:42;99906.44;;;22.76;44.65
74905;BME280;63465;50.862;6.220;2022-10-16T10:54:16;99922.59;;;23.24;44.29
74905;BME280;63465;50.862;6.220;2022-10-16T10:56:52;99918.81;;;23.07;44.45
74905;BME280;63465;50.862;6.220;2022-10-16T11:02:18;99923.84;;;20.04;52.02
74905;BME280;63465;50.862;6.220;2022-10-16T11:05:02;99915.00;;;20.65;50.04
74905;BME280;63465;50.862;6.220;2022-10-16T11:07:37;99916.78;;;20.85;50.21
74905;BME280;63465;50.862;6.220;2022-10-16T11:10:09;99915.91;;;23.28;44.17
74905;BME280;63465;50.862;6.220;2022-10-16T11:12:43;99915.22;;;25.03;38.93
74905;BME280;63465;50.862;6.220;2022-10-16T11:15:13;99924.09;;;25.64;37.64
74905;BME280;63465;50.862;6.220;2022-10-16T11:17:44;99919.88;;;26.11;36.80
74905;BME280;63465;50.862;6.220;2022-10-16T11:20:15;99924.56;;;24.21;40.65
74905;BME280;63465;50.862;6.220;2022-10-16T11:22:48;99928.78;;;22.31;43.37
74905;BME280;63465;50.862;6.220;2022-10-16T11:25:20;99932.19;;;22.80;42.60
74905;BME280;63465;50.862;6.220;2022-10-16T11:27:52;99933.41;;;22.96;41.41
74905;BME280;63465;50.862;6.220;2022-10-16T11:30:23;99937.56;;;23.46;41.00
74905;BME280;63465;50.862;6.220;2022-10-16T11:33:04;99935.03;;;22.41;43.53
74905;BME280;63465;50.862;6.220;2022-10-16T11:35:41;99916.53;;;23.76;40.26
74905;BME280;63465;50.862;6.220;2022-10-16T11:38:14;99923.56;;;23.05;41.53
74905;BME280;63465;50.862;6.220;2022-10-16T11:40:43;99930.06;;;23.40;41.63
74905;BME280;63465;50.862;6.220;2022-10-16T11:43:17;99930.94;;;25.25;37.56
74905;BME280;63465;50.862;6.220;2022-10-16T11:45:49;99928.84;;;24.50;37.79
74905;BME280;63465;50.862;6.220;2022-10-16T11:48:23;99944.41;;;23.68;39.77
74905;BME280;63465;50.862;6.220;2022-10-16T11:50:54;99935.75;;;22.43;42.00
74905;BME280;63465;50.862;6.220;2022-10-16T11:53:32;99935.09;;;21.23;45.59
74905;BME280;63465;50.862;6.220;2022-10-16T11:56:03;99938.63;;;21.13;45.16
74905;BME280;63465;50.862;6.220;2022-10-16T11:58:35;99931.63;;;20.70;46.57
74905;BME280;63465;50.862;6.220;2022-10-16T12:01:15;99932.31;;;22.22;42.03
74905;BME280;63465;50.862;6.220;2022-10-16T12:03:48;99928.78;;;23.16;40.50
74905;BME280;63465;50.862;6.220;2022-10-16T12:06:30;99926.88;;;23.26;40.09
74905;BME280;63465;50.862;6.220;2022-10-16T12:08:58;99934.66;;;23.57;40.15
74905;BME280;63465;50.862;6.220;2022-10-16T12:11:35;99934.50;;;23.95;39.21
74905;BME280;63465;50.862;6.220;2022-10-16T12:14:19;99927.66;;;23.37;40.52
74905;BME280;63465;50.862;6.220;2022-10-16T12:16:54;99928.19;;;23.22;40.98
74905;BME280;63465;50.862;6.220;2022-10-16T12:19:23;99925.88;;;22.52;43.88
74905;BME280;63465;50.862;6.220;2022-10-16T12:21:52;99931.94;;;22.07;44.05
74905;BME280;63465;50.862;6.220;2022-10-16T12:24:28;99932.28;;;21.44;45.85
74905;BME280;63465;50.862;6.220;2022-10-16T12:26:56;99932.53;;;21.21;45.54
74905;BME280;63465;50.862;6.220;2022-10-16T12:29:33;99920.84;;;21.90;45.02
74905;BME280;63465;50.862;6.220;2022-10-16T12:32:01;99926.81;;;21.05;46.62
74905;BME280;63465;50.862;6.220;2022-10-16T12:34:31;99926.72;;;20.54;48.19
74905;BME280;63465;50.862;6.220;2022-10-16T12:37:09;99929.03;;;20.99;46.37
74905;BME280;63465;50.862;6.220;2022-10-16T12:39:37;99925.38;;;21.00;48.10
74905;BME280;63465;50.862;6.220;2022-10-16T12:42:18;99917.41;;;21.49;46.58
74905;BME280;63465;50.862;6.220;2022-10-16T12:44:47;99925.84;;;21.25;47.01
74905;BME280;63465;50.862;6.220;2022-10-16T12:47:20;99922.13;;;21.07;47.63
74905;BME280;63465;50.862;6.220;2022-10-16T12:49:49;99915.59;;;20.69;47.86
74905;BME280;63465;50.862;6.220;2022-10-16T12:52:27;99903.28;;;21.26;46.67
74905;BME280;63465;50.862;6.220;2022-10-16T12:54:56;99908.00;;;21.44;48.10
74905;BME280;63465;50.862;6.220;2022-10-16T12:57:37;99908.19;;;21.52;46.14
74905;BME280;63465;50.862;6.220;2022-10-16T13:00:18;99917.59;;;21.07;47.31
74905;BME280;63465;50.862;6.220;2022-10-16T13:03:20;99934.94;;;20.74;47.63
74905;BME280;63465;50.862;6.220;2022-10-16T13:06:02;99923.09;;;20.44;48.36
74905;BME280;63465;50.862;6.220;2022-10-16T13:08:48;99915.84;;;20.65;48.23
74905;BME280;63465;50.862;6.220;2022-10-16T13:11:24;99912.75;;;20.70;47.75
74905;BME280;63465;50.862;6.220;2022-10-16T13:14:04;99917.94;;;20.83;48.07
74905;BME280;63465;50.862;6.220;2022-10-16T13:16:47;99911.50;;;21.15;46.96
74905;BME280;63465;50.862;6.220;2022-10-16T13:19:22;99917.94;;;21.33;47.08
74905;BME280;63465;50.862;6.220;2022-10-16T13:21:56;99912.78;;;21.20;47.13